Time;durP1;ratioP1;P1;durP2;ratioP2;P2;SDS_P1;SDS_P2;PMS_P1;PMS_P2;Temp;Humidity;BMP_temperature;BMP_pressure;BME280_temperature;BME280_humidity;BME280_pressure;Samples;Min_cycle;Max_cycle;Signal;HPM_P1;HPM_P2
2022/04/06 00:02:14;;;;;;;3.98;3.77;;;;;;;5.04;79.77;99228.78;1651210;85;21013;-67
2022/04/06 00:04:40;;;;;;;;;;;;;;;5.05;79.79;99230.44;1643438;86;22228;-66
2022/04/06 00:07:07;;;;;;;3.43;3.23;;;;;;;5.05;79.72;99230.44;1614984;86;20464;-66
2022/04/06 00:09:39;;;;;;;3.33;3.23;;;;;;;5.02;79.86;99234.75;1651230;85;21018;-66
2022/04/06 00:12:04;;;;;;;3.77;3.57;;;;;;;5.04;79.86;99235.39;1651001;85;21021;-67
2022/04/06 00:14:31;;;;;;;4.77;4.00;;;;;;;5.07;79.77;99237.17;1620666;87;21142;-67
2022/04/06 00:17:03;;;;;;;3.90;3.70;;;;;;;5.10;79.77;99243.09;1642649;86;21050;-66
2022/04/06 00:19:27;;;;;;;4.20;3.90;;;;;;;5.11;79.68;99242.11;1645515;86;22215;-67
2022/04/06 00:21:56;;;;;;;4.67;4.37;;;;;;;5.07;79.77;99245.61;1643009;86;21084;-66
2022/04/06 00:24:23;;;;;;;4.20;4.00;;;;;;;5.07;79.83;99245.61;1672689;85;21170;-66
2022/04/06 00:26:51;;;;;;;5.42;4.92;;;;;;;5.08;79.83;99243.27;1661084;84;21084;-66
2022/04/06 00:29:18;;;;;;;4.23;3.93;;;;;;;5.11;79.77;99250.84;1659954;85;21186;-66
2022/04/06 00:31:44;;;;;;;4.40;4.10;;;;;;;5.09;79.80;99244.92;1662966;85;21050;-67
2022/04/06 00:34:13;;;;;;;4.20;3.97;;;;;;;5.09;79.91;99251.53;1662515;84;21108;-66
2022/04/06 00:36:40;;;;;;;4.20;3.90;;;;;;;5.09;79.87;99251.53;1680573;84;21932;-67
2022/04/06 00:39:08;;;;;;;5.20;4.70;;;;;;;5.02;79.91;99243.48;1675276;84;21074;-66
2022/04/06 00:41:34;;;;;;;5.08;4.78;;;;;;;5.10;79.79;99265.55;1672584;84;21048;-66
2022/04/06 00:44:16;;;;;;;5.20;4.55;;;;;;;5.12;79.78;99265.68;1683493;84;21116;-67
2022/04/06 00:46:45;;;;;;;5.63;5.10;;;;;;;5.16;79.81;99266.98;1659418;85;21050;-67
2022/04/06 00:49:14;;;;;;;4.43;4.03;;;;;;;5.14;79.74;99263.70;1684844;84;21590;-68
2022/04/06 00:51:45;;;;;;;4.57;4.27;;;;;;;5.13;79.74;99260.73;1686248;84;21030;-67
2022/04/06 00:54:17;;;;;;;4.00;3.80;;;;;;;5.15;79.67;99268.48;1668342;84;21085;-68
2022/04/06 00:56:45;;;;;;;4.53;4.30;;;;;;;5.19;79.71;99281.14;1681583;84;21295;-66
2022/04/06 00:59:16;;;;;;;5.57;5.17;;;;;;;5.20;79.56;99280.16;1675800;84;21093;-67
2022/04/06 01:01:46;;;;;;;4.40;4.03;;;;;;;5.18;79.40;99272.06;1658943;84;21064;-68
2022/04/06 01:04:15;;;;;;;4.10;3.80;;;;;;;5.17;79.43;99275.22;1708915;83;21112;-67
2022/04/06 01:06:45;;;;;;;5.57;5.07;;;;;;;5.13;79.68;99275.26;1703298;82;21107;-67
2022/04/06 01:09:20;;;;;;;5.27;4.90;;;;;;;4.95;79.58;99250.98;1692781;83;21108;-68
2022/04/06 01:11:51;;;;;;;5.33;4.93;;;;;;;5.02;79.90;99261.97;1703940;83;21065;-66
2022/04/06 01:14:19;;;;;;;4.97;4.47;;;;;;;4.96;80.02;99265.84;1712835;83;21093;-67
2022/04/06 01:17:02;;;;;;;4.50;4.10;;;;;;;4.90;80.25;99263.89;1713899;82;21063;-69
2022/04/06 01:19:42;;;;;;;5.50;5.00;;;;;;;4.86;80.28;99266.09;1713360;83;21626;-67
2022/04/06 01:22:11;;;;;;;4.90;4.60;;;;;;;4.81;80.33;99272.40;1704669;83;21053;-68
2022/04/06 01:24:39;;;;;;;5.33;4.90;;;;;;;4.71;80.50;99262.08;1718416;83;21506;-66
2022/04/06 01:27:06;;;;;;;4.93;4.63;;;;;;;4.73;80.75;99274.61;1708337;83;21075;-67
2022/04/06 01:29:33;;;;;;;6.13;5.57;;;;;;;4.70;80.69;99273.62;1705536;83;21020;-68
2022/04/06 01:32:11;;;;;;;5.40;4.90;;;;;;;4.70;80.61;99275.45;1705140;83;21585;-68
2022/04/06 01:34:39;;;;;;;6.00;5.40;;;;;;;4.70;80.45;99280.73;1705554;83;21521;-68
2022/04/06 01:37:09;;;;;;;4.80;4.40;;;;;;;4.70;80.38;99279.41;1674842;85;21383;-68
2022/04/06 01:39:37;;;;;;;5.07;4.70;;;;;;;4.68;80.29;99275.63;1672204;85;21153;-69
2022/04/06 01:42:06;;;;;;;5.00;4.60;;;;;;;4.68;80.20;99271.66;1719727;83;21450;-68
2022/04/06 01:44:34;;;;;;;4.77;4.50;;;;;;;4.67;80.01;99276.13;1714265;83;21006;-68
2022/04/06 01:47:05;;;;;;;6.30;5.70;;;;;;;4.64;79.91;99279.11;1682447;83;21580;-68
2022/04/06 01:52:18;;;;;;;5.83;5.33;;;;;;;4.56;80.16;99289.73;1693503;83;22240;-68
2022/04/06 01:54:49;;;;;;;5.97;5.43;;;;;;;4.54;80.34;99297.48;1690833;83;21023;-68
2022/04/06 01:57:16;;;;;;;5.87;5.47;;;;;;;4.51;80.61;99302.63;1693715;83;21069;-68
2022/04/06 01:59:45;;;;;;;4.97;4.63;;;;;;;4.46;80.52;99297.88;1672757;85;21014;-68
2022/04/06 02:02:13;;;;;;;;;;;;;;;4.45;80.65;99292.27;1624216;85;21093;-67
2022/04/06 02:04:41;;;;;;;5.62;5.20;;;;;;;4.43;80.63;99288.98;1617892;87;20241;-68
2022/04/06 02:07:10;;;;;;;5.77;5.27;;;;;;;4.34;80.76;99294.48;1661620;84;21046;-67
2022/04/06 02:09:38;;;;;;;6.20;5.60;;;;;;;4.33;81.10;99290.19;1645350;85;21061;-68
2022/04/06 02:12:09;;;;;;;5.17;4.77;;;;;;;4.37;81.21;99288.84;1667437;84;21094;-67
2022/04/06 02:14:37;;;;;;;5.20;4.83;;;;;;;4.37;81.23;99296.76;1714480;83;21057;-68
2022/04/06 02:17:07;;;;;;;5.63;5.23;;;;;;;4.39;81.31;99298.72;1696825;83;21160;-67
2022/04/06 02:19:36;;;;;;;5.43;5.03;;;;;;;4.38;81.31;99295.27;1692559;83;21049;-67
2022/04/06 02:22:06;;;;;;;6.17;5.67;;;;;;;4.41;81.44;99292.80;1693565;84;21129;-66
2022/04/06 02:24:34;;;;;;;5.17;4.77;;;;;;;4.42;81.51;99293.92;1685795;84;21036;-67
2022/04/06 02:27:01;;;;;;;6.17;5.33;;;;;;;4.44;81.54;99294.56;1697372;83;21553;-67
2022/04/06 02:29:28;;;;;;;5.63;5.23;;;;;;;4.48;81.60;99306.92;1696357;83;21050;-67
2022/04/06 02:31:55;;;;;;;6.53;5.97;;;;;;;4.52;81.59;99304.76;1687757;84;21089;-68
2022/04/06 02:34:22;;;;;;;6.17;5.67;;;;;;;4.56;81.49;99305.57;1692203;83;21093;-68
2022/04/06 02:36:49;;;;;;;6.90;5.57;;;;;;;4.59;81.35;99304.39;1690992;84;21137;-68
2022/04/06 02:39:15;;;;;;;6.20;5.70;;;;;;;4.58;81.26;99305.41;1681930;84;21125;-68
2022/04/06 02:41:42;;;;;;;6.23;5.70;;;;;;;4.57;81.32;99313.80;1688125;84;21113;-68
2022/04/06 02:44:10;;;;;;;5.40;4.90;;;;;;;4.58;81.30;99305.41;1694510;83;21113;-68
2022/04/06 02:46:36;;;;;;;5.80;5.37;;;;;;;4.59;81.25;99305.20;1707583;83;21480;-68
2022/04/06 02:49:04;;;;;;;5.67;5.17;;;;;;;4.59;81.13;99305.70;1709627;83;21058;-67
2022/04/06 02:51:32;;;;;;;6.73;5.83;;;;;;;4.60;81.17;99309.50;1709004;83;21117;-68
2022/04/06 02:53:58;;;;;;;6.12;5.53;;;;;;;4.60;81.02;99301.58;1707095;84;21154;-68
2022/04/06 02:56:28;;;;;;;6.23;5.73;;;;;;;4.63;80.96;99309.16;1695366;84;21582;-67
2022/04/06 02:58:55;;;;;;;6.20;5.60;;;;;;;4.65;80.59;99315.08;1691426;84;21036;-67
2022/04/06 03:01:22;;;;;;;5.87;5.37;;;;;;;4.66;80.54;99314.07;1710146;83;21574;-68
2022/04/06 03:03:48;;;;;;;5.97;5.40;;;;;;;4.68;80.30;99317.86;1691986;84;21038;-68
2022/04/06 03:06:16;;;;;;;6.87;6.12;;;;;;;4.66;79.89;99319.34;1708981;84;21174;-68
2022/04/06 03:08:45;;;;;;;5.27;4.87;;;;;;;4.65;79.85;99319.52;1697587;84;21079;-69
2022/04/06 03:11:12;;;;;;;6.43;5.90;;;;;;;4.61;79.65;99314.27;1700481;84;21432;-67
2022/04/06 03:13:40;;;;;;;6.37;5.87;;;;;;;4.58;79.75;99313.32;1708093;83;21146;-67
2022/04/06 03:16:07;;;;;;;5.50;5.10;;;;;;;4.58;79.78;99326.52;1694497;84;21093;-67
2022/04/06 03:18:34;;;;;;;;;;;;;;;4.59;79.70;99326.82;1706598;83;21125;-67
2022/04/06 03:21:02;;;;;;;6.37;5.72;;;;;;;4.60;79.62;99322.69;1704514;83;20185;-67
2022/04/06 03:23:29;;;;;;;6.10;5.60;;;;;;;4.55;79.45;99329.48;1693312;84;21125;-68
2022/04/06 03:25:56;;;;;;;7.00;6.40;;;;;;;4.51;79.57;99337.44;1692012;84;21153;-68
2022/04/06 03:28:23;;;;;;;6.27;5.70;;;;;;;4.52;79.62;99342.55;1671916;84;21105;-69
2022/04/06 03:30:51;;;;;;;6.63;6.13;;;;;;;4.54;79.62;99341.88;1625377;87;21197;-68
2022/04/06 03:33:19;;;;;;;7.08;6.47;;;;;;;4.52;79.57;99336.42;1631618;86;21526;-67
2022/04/06 03:35:47;;;;;;;6.13;5.60;;;;;;;4.53;79.74;99330.16;1627884;86;21561;-68
2022/04/06 03:38:14;;;;;;;6.47;6.00;;;;;;;4.55;79.60;99341.37;1649501;87;21293;-68
2022/04/06 03:40:42;;;;;;;6.93;6.40;;;;;;;4.54;79.66;99348.95;1615908;88;21622;-69
2022/04/06 03:43:09;;;;;;;6.43;5.93;;;;;;;4.55;79.58;99363.80;1678762;85;21652;-68
2022/04/06 03:45:36;;;;;;;6.70;6.20;;;;;;;4.55;79.53;99362.48;1680856;84;21101;-68
2022/04/06 03:48:05;;;;;;;6.70;6.17;;;;;;;4.55;79.61;99352.73;1678379;85;21399;-67
2022/04/06 03:50:32;;;;;;;7.93;6.50;;;;;;;4.57;79.61;99343.33;1676501;85;21146;-68
2022/04/06 03:52:59;;;;;;;7.63;6.87;;;;;;;4.58;79.67;99343.16;1672217;85;21046;-68
2022/04/06 03:55:25;;;;;;;7.22;6.53;;;;;;;4.65;79.62;99343.27;1673167;85;21109;-68
2022/04/06 03:57:51;;;;;;;7.47;6.50;;;;;;;4.72;79.28;99351.33;1683820;84;21054;-68
2022/04/06 04:00:19;;;;;;;6.57;6.07;;;;;;;4.84;79.43;99356.52;1673562;84;21063;-69
2022/04/06 04:02:46;;;;;;;;;;;;;;;5.08;80.02;99354.20;1684621;84;21789;-67
2022/04/06 04:05:15;;;;;;;7.73;5.47;;;;;;;5.34;78.80;99351.70;1673689;84;20164;-68
2022/04/06 04:07:44;;;;;;;6.53;6.03;;;;;;;5.60;77.89;99362.69;1683834;84;21085;-69
2022/04/06 04:10:14;;;;;;;7.23;6.53;;;;;;;6.01;77.61;99366.27;1684577;84;21064;-68
2022/04/06 04:12:41;;;;;;;6.53;5.93;;;;;;;6.54;74.89;99365.31;1666634;84;21165;-69
2022/04/06 04:15:09;;;;;;;5.45;4.90;;;;;;;7.10;73.40;99364.17;1675603;84;21130;-69
2022/04/06 04:17:37;;;;;;;5.83;5.33;;;;;;;7.65;70.57;99379.48;1675166;84;21066;-68
2022/04/06 04:20:06;;;;;;;7.05;5.75;;;;;;;8.11;68.41;99369.70;1675769;84;21530;-69
2022/04/06 04:22:34;;;;;;;6.17;5.57;;;;;;;8.39;66.67;99364.33;1669373;84;21049;-68
2022/04/06 04:25:03;;;;;;;6.57;6.07;;;;;;;8.67;65.91;99357.61;1667739;84;21249;-68
2022/04/06 04:27:30;;;;;;;6.63;6.03;;;;;;;9.03;63.20;99337.05;1628279;86;21098;-69
2022/04/06 04:29:58;;;;;;;6.47;6.03;;;;;;;9.26;61.78;99340.64;1630847;86;21466;-69
2022/04/06 04:32:25;;;;;;;6.30;5.83;;;;;;;9.26;61.35;99357.92;1664885;84;21370;-67
2022/04/06 04:34:54;;;;;;;5.83;5.37;;;;;;;9.43;61.87;99363.66;1664841;84;21010;-69
2022/04/06 04:37:21;;;;;;;5.97;5.47;;;;;;;9.50;60.96;99386.58;1662125;84;21137;-69
2022/04/06 04:39:49;;;;;;;6.63;6.13;;;;;;;9.33;60.80;99396.80;1663128;84;21187;-67
2022/04/06 04:42:17;;;;;;;6.50;6.00;;;;;;;9.20;61.49;99402.09;1665262;84;21074;-67
2022/04/06 04:44:46;;;;;;;6.30;5.80;;;;;;;9.16;61.34;99392.89;1666753;84;21047;-68
2022/04/06 04:47:13;;;;;;;6.57;5.87;;;;;;;9.22;61.58;99384.09;1674621;85;21048;-69
2022/04/06 04:49:42;;;;;;;5.75;5.35;;;;;;;9.44;61.85;99378.61;1672890;84;21084;-69
2022/04/06 04:52:11;;;;;;;7.93;6.17;;;;;;;9.35;60.50;99381.45;1668381;84;21216;-69
2022/04/06 04:54:38;;;;;;;7.43;6.77;;;;;;;8.88;61.57;99368.60;1663619;84;21096;-68
2022/04/06 04:57:05;;;;;;;5.87;5.47;;;;;;;8.33;63.21;99385.03;1676361;84;21119;-68
2022/04/06 04:59:34;;;;;;;7.30;6.17;;;;;;;7.89;64.50;99398.98;1676136;84;21108;-68
2022/04/06 05:02:01;;;;;;;6.93;6.23;;;;;;;7.49;65.95;99410.59;1659485;84;21086;-69
2022/04/06 05:04:28;;;;;;;7.23;6.63;;;;;;;7.07;67.76;99421.52;1674868;85;21631;-69
2022/04/06 05:06:56;;;;;;;6.87;6.17;;;;;;;6.71;69.22;99426.31;1668323;85;21092;-67
2022/04/06 05:09:23;;;;;;;7.17;6.47;;;;;;;6.37;70.80;99426.91;1656236;85;21127;-68
2022/04/06 05:11:50;;;;;;;5.87;5.30;;;;;;;6.19;71.69;99431.22;1651381;85;20979;-68
2022/04/06 05:14:17;;;;;;;6.08;5.67;;;;;;;6.10;72.79;99427.83;1616786;87;21280;-69
2022/04/06 05:16:45;;;;;;;7.10;5.40;;;;;;;6.09;72.69;99415.63;1604878;88;22231;-68
2022/04/06 05:19:12;;;;;;;7.67;6.90;;;;;;;6.08;73.29;99405.22;1630706;87;22457;-69
2022/04/06 05:21:39;;;;;;;6.37;5.87;;;;;;;6.10;73.72;99406.66;1628397;87;22290;-68
2022/04/06 05:24:07;;;;;;;7.23;6.37;;;;;;;6.09;73.51;99406.87;1653008;84;21089;-68
2022/04/06 05:26:33;;;;;;;;;;;;;;;6.12;73.71;99403.84;1667228;84;22269;-68
2022/04/06 05:29:01;;;;;;;8.90;6.45;;;;;;;6.38;73.94;99406.84;1648724;84;20129;-68
2022/04/06 05:31:30;;;;;;;7.27;6.67;;;;;;;6.70;72.42;99408.77;1655943;84;21054;-68
2022/04/06 05:33:59;;;;;;;8.33;7.50;;;;;;;7.26;71.11;99406.81;1660521;84;21407;-68
2022/04/06 05:36:28;;;;;;;8.30;7.50;;;;;;;7.91;68.64;99404.91;1661451;84;21072;-68
2022/04/06 05:38:54;;;;;;;7.47;6.87;;;;;;;8.19;66.42;99417.31;1659593;84;21670;-68
2022/04/06 05:41:21;;;;;;;7.27;6.77;;;;;;;8.05;66.29;99415.61;1662759;84;21161;-68
2022/04/06 05:43:48;;;;;;;8.13;7.43;;;;;;;7.76;67.10;99419.59;1662121;84;21093;-68
2022/04/06 05:48:55;;;;;;;11.43;8.07;;;;;;;7.21;68.63;99419.81;1631763;86;21266;-67
2022/04/06 05:51:22;;;;;;;7.77;7.17;;;;;;;6.90;69.69;99412.98;1630688;86;21222;-68
2022/04/06 05:53:49;;;;;;;7.53;6.83;;;;;;;6.69;70.67;99423.03;1638437;86;21070;-67
2022/04/06 05:56:17;;;;;;;8.43;6.63;;;;;;;6.57;71.19;99425.82;1642075;86;21048;-68
2022/04/06 05:58:44;;;;;;;7.27;6.67;;;;;;;6.41;71.71;99418.40;1613807;87;21066;-68
2022/04/06 06:01:11;;;;;;;8.03;7.23;;;;;;;6.26;72.39;99417.59;1611347;87;21025;-69
2022/04/06 06:03:38;;;;;;;7.90;6.83;;;;;;;6.20;72.27;99420.46;1626812;87;21566;-67
2022/04/06 06:06:04;;;;;;;;;;;;;;;6.23;72.62;99417.94;1626338;87;21082;-67
2022/04/06 06:08:31;;;;;;;8.20;7.30;;;;;;;6.25;73.12;99423.88;1624487;87;20510;-68
2022/04/06 06:10:57;;;;;;;9.48;8.58;;;;;;;6.17;73.05;99420.00;1621671;87;21159;-67
2022/04/06 06:13:24;;;;;;;7.73;7.00;;;;;;;6.15;73.35;99408.27;1647712;85;21022;-67
2022/04/06 06:15:52;;;;;;;8.40;7.70;;;;;;;6.18;73.41;99403.14;1663190;85;21160;-67
2022/04/06 06:18:18;;;;;;;9.53;7.90;;;;;;;6.14;73.54;99395.22;1659982;85;21224;-68
2022/04/06 06:20:47;;;;;;;10.00;8.80;;;;;;;6.08;73.57;99390.66;1661024;85;21124;-67
2022/04/06 06:23:13;;;;;;;9.13;8.27;;;;;;;6.01;74.22;99415.72;1663021;85;20994;-65
2022/04/06 06:25:40;;;;;;;9.53;8.25;;;;;;;5.99;74.56;99413.25;1664766;85;21079;-66
2022/04/06 06:28:06;;;;;;;;;;;;;;;5.98;74.68;99422.17;1680962;84;21084;-66
2022/04/06 06:30:35;;;;;;;7.57;6.97;;;;;;;6.00;74.57;99421.48;1699392;83;20169;-66
2022/04/06 06:33:01;;;;;;;8.87;8.07;;;;;;;5.97;75.26;99421.03;1674943;84;21661;-67
2022/04/06 06:35:28;;;;;;;9.15;8.28;;;;;;;5.96;75.61;99421.53;1644192;86;21019;-66
2022/04/06 06:37:57;;;;;;;10.23;8.60;;;;;;;5.98;75.14;99408.95;1642681;85;21059;-67
2022/04/06 06:40:26;;;;;;;8.13;7.43;;;;;;;6.00;75.53;99412.23;1679961;84;21381;-69
2022/04/06 06:42:53;;;;;;;10.00;9.10;;;;;;;6.06;75.49;99409.88;1678598;84;21670;-68
2022/04/06 06:45:19;;;;;;;;;;;;;;;6.09;75.33;99411.66;1681713;84;21496;-67
2022/04/06 06:47:47;;;;;;;9.70;8.50;;;;;;;6.12;75.42;99417.92;1651878;85;20442;-71
2022/04/06 06:50:16;;;;;;;10.97;8.90;;;;;;;6.09;75.49;99419.59;1651799;85;21112;-67
2022/04/06 06:52:43;;;;;;;9.43;8.63;;;;;;;6.14;75.56;99415.06;1681956;84;21593;-67
2022/04/06 06:55:11;;;;;;;9.57;8.77;;;;;;;6.15;75.22;99420.18;1645725;85;21108;-68
2022/04/06 06:57:38;;;;;;;9.97;8.93;;;;;;;6.16;75.24;99416.55;1658192;85;22241;-68
2022/04/06 07:00:06;;;;;;;;;;;;;;;6.13;75.38;99403.67;1644187;85;21386;-68
2022/04/06 07:02:34;;;;;;;8.60;7.90;;;;;;;6.10;75.31;99421.22;1681817;84;20167;-68
2022/04/06 07:05:01;;;;;;;8.80;7.90;;;;;;;6.02;75.94;99411.55;1685193;83;20980;-68
2022/04/06 07:07:29;;;;;;;9.43;8.50;;;;;;;6.07;75.99;99405.73;1668049;83;21046;-67
2022/04/06 07:09:57;;;;;;;9.57;8.67;;;;;;;6.12;75.85;99406.48;1681621;84;21079;-68
2022/04/06 07:12:25;;;;;;;7.93;7.23;;;;;;;6.21;75.95;99410.69;1659038;84;21460;-67
2022/04/06 07:14:52;;;;;;;8.10;7.40;;;;;;;6.30;75.43;99408.78;1665558;84;21606;-68
2022/04/06 07:17:19;;;;;;;9.53;8.63;;;;;;;6.39;75.31;99408.50;1664529;84;21058;-67
2022/04/06 07:19:45;;;;;;;7.83;7.10;;;;;;;6.53;74.99;99406.02;1658208;84;21107;-68
2022/04/06 07:22:12;;;;;;;8.95;8.03;;;;;;;6.70;74.55;99407.44;1666441;84;21110;-68
2022/04/06 07:24:40;;;;;;;8.35;7.62;;;;;;;6.88;74.17;99404.39;1641738;86;21101;-68
2022/04/06 07:27:07;;;;;;;7.37;6.77;;;;;;;7.10;73.58;99415.84;1670608;84;21620;-68
2022/04/06 07:29:34;;;;;;;8.53;7.75;;;;;;;7.28;72.78;99409.28;1643001;86;21087;-68
2022/04/06 07:32:00;;;;;;;9.33;8.43;;;;;;;7.43;71.87;99414.01;1640316;86;21100;-68
2022/04/06 07:34:27;;;;;;;8.63;7.83;;;;;;;7.52;71.41;99411.54;1650537;85;21594;-68
2022/04/06 07:36:53;;;;;;;;;;;;;;;7.56;71.09;99407.48;1654103;85;21055;-68
2022/04/06 07:39:19;;;;;;;9.23;8.37;;;;;;;7.57;70.60;99400.34;1657489;85;20166;-68
2022/04/06 07:41:46;;;;;;;7.92;7.33;;;;;;;7.51;70.94;99405.91;1651995;85;21062;-67
2022/04/06 07:44:13;;;;;;;;;;;;;;;7.47;70.76;99399.86;1653408;85;20976;-67
2022/04/06 07:46:39;;;;;;;7.00;6.23;;;;;;;7.48;71.16;99398.35;1626170;87;20458;-71
2022/04/06 07:49:07;;;;;;;7.30;6.33;;;;;;;7.47;70.80;99399.35;1636840;86;22337;-66
2022/04/06 07:51:37;;;;;;;7.63;6.93;;;;;;;7.50;70.63;99391.03;1633320;87;21549;-69
2022/04/06 07:54:04;;;;;;;6.90;6.20;;;;;;;7.55;70.61;99391.77;1630866;87;21102;-68
2022/04/06 07:56:30;;;;;;;;;;;;;;;7.60;70.52;99386.20;1625018;86;21102;-69
2022/04/06 07:58:57;;;;;;;7.20;6.50;;;;;;;7.67;70.51;99386.27;1643022;86;20331;-68
2022/04/06 08:01:23;;;;;;;7.30;6.53;;;;;;;7.71;70.24;99382.20;1653151;85;21211;-68
2022/04/06 08:03:51;;;;;;;5.87;5.35;;;;;;;7.86;69.78;99384.77;1650772;85;21141;-67
2022/04/06 08:06:19;;;;;;;6.37;5.80;;;;;;;8.06;69.22;99385.38;1647609;85;21104;-69
2022/04/06 08:08:48;;;;;;;5.87;5.37;;;;;;;8.30;68.53;99378.27;1646843;86;21077;-68
2022/04/06 08:11:15;;;;;;;5.93;5.47;;;;;;;8.51;66.99;99376.55;1653124;85;21064;-68
2022/04/06 08:13:41;;;;;;;5.80;5.30;;;;;;;8.64;66.45;99365.16;1644152;86;21364;-68
2022/04/06 08:16:08;;;;;;;6.25;5.75;;;;;;;8.80;65.53;99378.58;1640829;86;21087;-68
2022/04/06 08:18:34;;;;;;;6.70;5.67;;;;;;;8.87;64.77;99378.94;1654329;85;21028;-68
2022/04/06 08:21:01;;;;;;;6.85;6.20;;;;;;;8.95;65.59;99373.94;1646751;85;21528;-68
2022/04/06 08:23:28;;;;;;;5.27;4.97;;;;;;;9.07;65.02;99380.81;1640370;86;21055;-67
2022/04/06 08:25:55;;;;;;;5.17;4.78;;;;;;;9.15;64.00;99373.47;1637297;86;21098;-68
2022/04/06 08:28:22;;;;;;;5.27;4.90;;;;;;;9.22;63.50;99374.80;1637127;86;21166;-69
2022/04/06 08:30:49;;;;;;;5.45;5.05;;;;;;;9.29;62.57;99370.82;1631152;86;21064;-68
2022/04/06 08:33:16;;;;;;;5.03;4.70;;;;;;;9.32;62.43;99377.88;1638438;85;21052;-68
2022/04/06 08:35:43;;;;;;;5.10;4.70;;;;;;;9.35;62.47;99382.78;1679625;84;21094;-69
2022/04/06 08:38:14;;;;;;;7.07;5.50;;;;;;;9.40;62.50;99382.67;1674392;84;21057;-69
2022/04/06 08:40:42;;;;;;;5.27;4.87;;;;;;;9.46;62.13;99384.54;1680573;84;21058;-70
2022/04/06 08:43:10;;;;;;;5.33;4.83;;;;;;;9.52;62.09;99373.88;1676276;84;21532;-69
2022/04/06 08:45:40;;;;;;;4.67;4.37;;;;;;;9.59;61.78;99376.55;1677677;83;21107;-68
2022/04/06 08:48:09;;;;;;;5.53;5.07;;;;;;;9.63;61.34;99376.45;1685016;83;22490;-67
2022/04/06 08:50:37;;;;;;;5.10;4.70;;;;;;;9.72;61.67;99376.55;1683888;84;21010;-69
2022/04/06 08:53:08;;;;;;;5.40;5.00;;;;;;;9.86;61.17;99373.34;1676535;84;21107;-69
2022/04/06 08:55:38;;;;;;;5.07;4.60;;;;;;;9.96;59.85;99368.92;1684428;83;20984;-69
2022/04/06 08:58:07;;;;;;;4.37;4.07;;;;;;;10.10;60.52;99371.06;1716025;82;21153;-68
2022/04/06 09:00:35;;;;;;;3.83;3.60;;;;;;;10.31;59.72;99358.02;1653375;85;20998;-70
2022/04/06 09:03:03;;;;;;;4.70;4.30;;;;;;;10.56;58.65;99360.77;1630448;86;21502;-69
2022/04/06 09:05:32;;;;;;;3.97;3.70;;;;;;;10.80;58.16;99357.08;1640474;86;21474;-69
2022/04/06 09:08:02;;;;;;;6.27;3.77;;;;;;;11.05;57.80;99360.59;1614872;88;21060;-69
2022/04/06 09:10:37;;;;;;;4.27;3.97;;;;;;;11.30;56.22;99359.80;1631106;86;21513;-67
2022/04/06 09:13:20;;;;;;;3.80;3.50;;;;;;;11.46;56.05;99355.27;1626668;86;21073;-68
2022/04/06 09:15:51;;;;;;;4.47;3.20;;;;;;;11.59;54.92;99354.88;1629854;86;21093;-69
2022/04/06 09:18:19;;;;;;;3.43;3.17;;;;;;;11.68;54.15;99350.36;1634717;86;21668;-68
2022/04/06 09:20:47;;;;;;;2.93;2.73;;;;;;;11.76;53.54;99349.27;1624058;86;21989;-69
2022/04/06 09:23:18;;;;;;;4.40;3.90;;;;;;;11.78;53.31;99356.53;1642803;85;21037;-68
2022/04/06 09:25:49;;;;;;;2.90;2.70;;;;;;;11.81;53.48;99344.58;1637416;85;21572;-68
2022/04/06 09:28:17;;;;;;;2.40;2.20;;;;;;;11.87;53.69;99355.73;1662397;85;21040;-68
2022/04/06 09:30:46;;;;;;;1.92;1.82;;;;;;;11.94;52.95;99356.52;1656551;85;21021;-70
2022/04/06 09:33:21;;;;;;;2.63;2.43;;;;;;;11.93;51.88;99337.52;1657760;85;21133;-68
2022/04/06 09:35:50;;;;;;;2.07;1.97;;;;;;;11.92;52.37;99342.55;1622634;87;21082;-68
2022/04/06 09:38:23;;;;;;;2.42;2.30;;;;;;;11.85;51.55;99339.93;1647816;86;21150;-68
2022/04/06 09:41:04;;;;;;;2.63;2.43;;;;;;;11.80;52.13;99341.11;1639817;86;21028;-69
2022/04/06 09:43:34;;;;;;;2.30;2.17;;;;;;;11.80;52.53;99349.64;1640807;86;21065;-69
2022/04/06 09:49:09;;;;;;;1.80;1.70;;;;;;;11.75;52.54;99336.94;1653060;85;21168;-68
2022/04/06 09:51:40;;;;;;;1.82;1.72;;;;;;;11.79;52.14;99356.84;1638437;86;21131;-68
2022/04/06 09:54:09;;;;;;;5.13;2.33;;;;;;;11.75;52.74;99351.62;1662125;85;22167;-67
2022/04/06 09:56:40;;;;;;;2.02;1.92;;;;;;;11.75;52.96;99362.30;1627513;86;21001;-70
2022/04/06 09:59:09;;;;;;;2.00;1.90;;;;;;;11.80;53.03;99363.80;1655361;85;21042;-69
2022/04/06 10:01:52;;;;;;;3.20;3.00;;;;;;;11.88;53.24;99359.53;1621863;85;20995;-69
2022/04/06 10:04:21;;;;;;;1.70;1.60;;;;;;;11.97;52.72;99368.61;1585908;88;21098;-69
2022/04/06 10:06:49;;;;;;;2.40;2.30;;;;;;;12.01;52.27;99357.25;1582461;88;21145;-69
2022/04/06 10:09:15;;;;;;;2.73;2.57;;;;;;;12.07;52.10;99371.08;1590014;88;21150;-68
2022/04/06 10:11:44;;;;;;;1.60;1.60;;;;;;;12.18;51.94;99362.02;1611035;87;21117;-68
2022/04/06 10:14:11;;;;;;;2.10;1.95;;;;;;;12.28;51.80;99371.64;1646771;85;21556;-69
2022/04/06 10:16:40;;;;;;;1.47;1.40;;;;;;;12.36;51.41;99366.02;1648873;85;21128;-70
2022/04/06 10:19:11;;;;;;;1.70;1.60;;;;;;;12.44;51.41;99360.36;1615689;87;21178;-69
2022/04/06 10:22:02;;;;;;;2.20;1.25;;;;;;;12.49;51.80;99343.67;1642302;85;21667;-70
2022/04/06 10:25:01;;;;;;;1.75;1.65;;;;;;;12.67;51.15;99350.82;1665749;84;21018;-70
2022/04/06 10:27:37;;;;;;;2.98;1.67;;;;;;;12.79;50.58;99370.42;1670430;84;21066;-69
2022/04/06 10:30:17;;;;;;;1.43;1.43;;;;;;;12.87;50.69;99370.63;1674414;84;21013;-67
2022/04/06 10:32:48;;;;;;;2.02;1.95;;;;;;;12.95;50.60;99370.29;1672059;84;21763;-67
2022/04/06 10:35:22;;;;;;;2.90;1.95;;;;;;;12.71;50.32;99307.87;1676874;84;21569;-68
2022/04/06 10:37:59;;;;;;;1.80;1.70;;;;;;;13.03;49.99;99382.02;1690734;84;21511;-67
2022/04/06 10:40:47;;;;;;;3.45;1.82;;;;;;;13.05;49.97;99389.30;1672683;84;21109;-67
2022/04/06 10:43:44;;;;;;;1.45;1.35;;;;;;;13.08;49.98;99384.53;1673126;84;21088;-70
2022/04/06 10:46:15;;;;;;;2.85;2.22;;;;;;;13.06;49.96;99379.41;1672287;84;21198;-67
2022/04/06 10:49:15;;;;;;;2.77;1.80;;;;;;;12.84;50.09;99377.22;1642884;85;21184;-69
2022/04/06 10:51:48;;;;;;;1.42;1.42;;;;;;;12.72;50.47;99393.75;1652217;85;21117;-67
2022/04/06 10:54:23;;;;;;;4.37;1.57;;;;;;;12.62;50.81;99400.13;1623086;87;21642;-69
2022/04/06 10:56:54;;;;;;;1.57;1.45;;;;;;;12.55;51.18;99410.92;1654925;85;21025;-69
2022/04/06 10:59:28;;;;;;;2.45;1.42;;;;;;;12.50;51.42;99408.63;1651893;85;21144;-69
2022/04/06 11:02:26;;;;;;;1.77;1.67;;;;;;;12.49;51.83;99415.83;1645430;86;21028;-69
2022/04/06 11:04:53;;;;;;;1.40;1.25;;;;;;;12.50;52.08;99415.30;1632122;86;21069;-69
2022/04/06 11:10:25;;;;;;;1.90;1.80;;;;;;;12.36;53.12;99424.00;1617257;87;20181;-68
2022/04/06 11:13:01;;;;;;;2.90;2.60;;;;;;;12.25;53.59;99426.88;1634589;85;21110;-69
2022/04/06 11:15:38;;;;;;;2.60;2.20;;;;;;;12.25;53.90;99405.51;1673418;84;21134;-69
2022/04/06 11:18:25;;;;;;;2.15;1.95;;;;;;;12.26;53.58;99415.14;1677437;83;21046;-68
2022/04/06 11:21:01;;;;;;;2.02;1.72;;;;;;;12.31;53.51;99423.31;1676153;84;21141;-68
2022/04/06 11:23:29;;;;;;;;;;;;;;;12.39;53.56;99421.67;1675391;84;20977;-69
2022/04/06 11:25:59;;;;;;;2.52;2.33;;;;;;;12.51;53.49;99431.13;1676142;84;20177;-69
2022/04/06 11:28:28;;;;;;;3.00;2.80;;;;;;;12.53;52.64;99421.02;1669586;84;21059;-68
2022/04/06 11:31:00;;;;;;;2.02;1.92;;;;;;;12.56;52.81;99425.09;1671183;84;21166;-69
2022/04/06 11:33:40;;;;;;;1.98;1.87;;;;;;;12.57;52.87;99436.91;1672010;84;21568;-70
2022/04/06 11:36:16;;;;;;;1.80;1.70;;;;;;;12.64;52.87;99430.16;1671980;84;21142;-69
2022/04/06 11:41:42;;;;;;;1.85;1.75;;;;;;;12.82;52.73;99440.81;1764990;79;22206;-69
2022/04/06 11:44:20;;;;;;;2.30;2.10;;;;;;;12.76;52.17;99434.23;1739284;80;21680;-68
2022/04/06 11:46:48;;;;;;;4.13;3.73;;;;;;;12.65;52.46;99437.93;1743283;81;21131;-68
2022/04/06 11:49:20;;;;;;;7.97;5.35;;;;;;;12.51;52.95;99435.13;1746641;81;21592;-70
2022/04/06 11:51:47;;;;;;;5.17;3.52;;;;;;;12.44;53.34;99441.88;1739280;81;21267;-69
2022/04/06 11:54:18;;;;;;;5.40;4.10;;;;;;;12.31;53.66;99431.86;1687265;82;21576;-69
2022/04/06 11:56:50;;;;;;;4.65;3.10;;;;;;;12.33;53.83;99446.62;1700012;82;21040;-69
2022/04/06 11:59:19;;;;;;;3.05;2.75;;;;;;;12.29;54.03;99451.30;1671915;83;21179;-69
2022/04/06 12:01:47;;;;;;;2.08;1.98;;;;;;;12.27;54.34;99450.19;1717558;81;22095;-69
2022/04/06 12:04:25;;;;;;;2.22;2.12;;;;;;;12.29;54.44;99443.29;1710479;82;21115;-69
2022/04/06 12:06:54;;;;;;;2.85;2.62;;;;;;;12.36;54.83;99448.05;1710182;82;21533;-70